createdAt,value
2022-12-17T00:00:57.941Z,3.10
2022-12-17T00:04:23.655Z,3.08
2022-12-17T00:07:48.170Z,3.09
2022-12-17T00:11:11.019Z,3.06
2022-12-17T00:14:35.455Z,3.06
2022-12-17T00:17:59.096Z,3.07
2022-12-17T00:21:30.457Z,3.08
2022-12-17T00:24:53.413Z,3.08
2022-12-17T00:28:19.214Z,3.04
2022-12-17T00:31:43.383Z,3.01
2022-12-17T00:35:07.931Z,3.01
2022-12-17T00:38:21.124Z,3.06
2022-12-17T00:41:43.870Z,3.06
2022-12-17T00:45:08.473Z,3.05
2022-12-17T00:48:33.508Z,3.06
2022-12-17T00:51:57.406Z,3.08
2022-12-17T00:55:21.342Z,3.13
2022-12-17T00:58:43.887Z,3.19
2022-12-17T01:02:09.772Z,3.21
2022-12-17T01:05:35.124Z,3.27
2022-12-17T01:08:58.504Z,3.34
2022-12-17T01:12:21.620Z,3.38
2022-12-17T01:15:47.350Z,3.43
2022-12-17T01:19:11.142Z,3.47
2022-12-17T01:22:35.145Z,3.46
2022-12-17T01:26:01.390Z,3.41
2022-12-17T01:29:26.871Z,3.34
2022-12-17T01:32:50.444Z,3.28
2022-12-17T01:36:15.124Z,3.24
2022-12-17T01:39:39.862Z,3.23
2022-12-17T01:43:12.609Z,3.20
2022-12-17T01:46:35.975Z,3.20
2022-12-17T01:49:59.191Z,3.24
2022-12-17T01:53:23.607Z,3.26
2022-12-17T01:56:31.473Z,3.32
2022-12-17T01:59:58.620Z,3.40
2022-12-17T02:03:25.140Z,3.41
2022-12-17T02:06:58.875Z,3.45
2022-12-17T02:10:45.468Z,3.52
2022-12-17T02:14:13.941Z,3.55
2022-12-17T02:17:39.166Z,3.54
2022-12-17T02:21:16.659Z,3.58
2022-12-17T02:24:46.265Z,3.63
2022-12-17T02:28:10.691Z,3.68
2022-12-17T02:31:19.699Z,3.73
2022-12-17T02:34:42.491Z,3.77
2022-12-17T02:38:06.393Z,3.81
2022-12-17T02:41:29.091Z,3.85
2022-12-17T02:44:54.528Z,3.87
2022-12-17T02:48:18.535Z,3.81
2022-12-17T02:51:42.682Z,3.83
2022-12-17T02:55:07.726Z,3.84
2022-12-17T02:58:32.881Z,3.85
2022-12-17T03:01:55.611Z,3.86
2022-12-17T03:05:43.887Z,3.88
2022-12-17T03:08:46.259Z,3.86
2022-12-17T03:12:10.136Z,3.86
2022-12-17T03:15:35.030Z,3.87
2022-12-17T03:18:55.610Z,3.89
2022-12-17T03:22:19.973Z,3.91
2022-12-17T03:25:44.700Z,3.87
2022-12-17T03:29:09.981Z,3.85
2022-12-17T03:32:33.542Z,3.78
2022-12-17T03:36:00.159Z,3.64
2022-12-17T03:39:23.653Z,3.59
2022-12-17T03:42:48.327Z,3.55
2022-12-17T03:46:12.714Z,3.58
2022-12-17T03:49:35.623Z,3.67
2022-12-17T03:52:58.328Z,3.71
2022-12-17T03:56:21.810Z,3.76
2022-12-17T03:59:45.534Z,3.77
2022-12-17T04:03:09.401Z,3.70
2022-12-17T04:06:30.824Z,3.74
2022-12-17T04:09:54.147Z,3.78
2022-12-17T04:13:17.490Z,3.76
2022-12-17T04:16:42.772Z,3.79
2022-12-17T04:20:07.153Z,3.85
2022-12-17T04:23:30.729Z,3.90
2022-12-17T04:26:54.175Z,3.94
2022-12-17T04:30:19.641Z,3.94
2022-12-17T04:33:43.408Z,3.94
2022-12-17T04:37:07.634Z,3.83
2022-12-17T04:40:31.499Z,3.82
2022-12-17T04:43:59.667Z,3.81
2022-12-17T04:47:20.566Z,3.84
2022-12-17T04:50:43.826Z,3.90
2022-12-17T04:54:05.816Z,3.94
2022-12-17T04:57:29.997Z,3.99
2022-12-17T05:00:53.359Z,4.03
2022-12-17T05:04:15.937Z,4.02
2022-12-17T05:07:38.559Z,4.04
2022-12-17T05:11:01.115Z,4.05
2022-12-17T05:14:23.310Z,4.06
2022-12-17T05:17:47.077Z,4.06
2022-12-17T05:21:11.382Z,4.10
2022-12-17T05:24:37.908Z,4.10
2022-12-17T05:28:01.579Z,4.14
2022-12-17T05:31:27.458Z,4.12
2022-12-17T05:34:50.250Z,4.12
2022-12-17T05:38:04.580Z,4.07
2022-12-17T05:41:30.086Z,4.06
2022-12-17T05:44:53.938Z,4.07
2022-12-17T05:48:18.019Z,4.13
2022-12-17T05:51:41.853Z,4.17
2022-12-17T05:55:03.695Z,4.18
2022-12-17T05:58:38.590Z,4.18
2022-12-17T06:02:00.890Z,4.23
2022-12-17T06:05:24.173Z,4.26
2022-12-17T06:08:47.278Z,4.33
2022-12-17T06:12:11.342Z,4.36
2022-12-17T06:15:34.789Z,4.42
2022-12-17T06:18:58.400Z,4.46
2022-12-17T06:22:24.973Z,4.47
2022-12-17T06:25:47.855Z,4.42
2022-12-17T06:29:12.060Z,4.43
2022-12-17T06:32:34.400Z,4.46
2022-12-17T06:35:59.952Z,4.51
2022-12-17T06:39:22.482Z,4.56
2022-12-17T06:42:46.384Z,4.61
2022-12-17T06:46:09.555Z,4.63
2022-12-17T06:49:32.310Z,4.65
2022-12-17T06:52:58.062Z,4.69
2022-12-17T06:56:21.676Z,4.72
2022-12-17T06:59:44.285Z,4.70
2022-12-17T07:03:10.189Z,4.67
2022-12-17T07:06:34.641Z,4.65
2022-12-17T07:09:58.750Z,4.63
2022-12-17T07:13:22.057Z,4.65
2022-12-17T07:16:45.427Z,4.69
2022-12-17T07:20:09.080Z,4.74
2022-12-17T07:23:32.562Z,4.78
2022-12-17T07:26:55.000Z,4.81
2022-12-17T07:30:04.737Z,4.85
2022-12-17T07:33:34.437Z,4.84
2022-12-17T07:36:58.606Z,4.86
2022-12-17T07:40:22.302Z,4.90
2022-12-17T07:43:49.648Z,4.94
2022-12-17T07:47:10.054Z,4.98
2022-12-17T07:50:32.721Z,5.06
2022-12-17T07:53:56.348Z,5.14
2022-12-17T07:57:17.790Z,5.16
2022-12-17T08:00:47.553Z,5.12
2022-12-17T08:04:07.545Z,5.16
2022-12-17T08:07:31.539Z,5.24
2022-12-17T08:10:58.446Z,5.31
2022-12-17T08:14:22.131Z,5.38
2022-12-17T08:17:45.491Z,5.41
2022-12-17T08:21:09.633Z,5.47
2022-12-17T08:24:31.940Z,5.53
2022-12-17T08:27:55.835Z,5.55
2022-12-17T08:31:21.036Z,5.59
2022-12-17T08:34:45.014Z,5.59
2022-12-17T08:38:09.413Z,5.65
2022-12-17T08:41:33.754Z,5.66
2022-12-17T08:44:57.262Z,5.71
2022-12-17T08:48:20.251Z,5.77
2022-12-17T08:51:47.343Z,5.80
2022-12-17T08:55:12.197Z,5.81
2022-12-17T08:58:35.404Z,5.82
2022-12-17T09:01:58.607Z,5.84
2022-12-17T09:05:25.462Z,5.80
2022-12-17T09:08:49.646Z,5.75
2022-12-17T09:12:14.114Z,5.76
2022-12-17T09:15:39.011Z,5.80
2022-12-17T09:19:02.057Z,5.80
2022-12-17T09:22:26.089Z,5.85
2022-12-17T09:25:52.477Z,5.93
2022-12-17T09:29:14.530Z,5.96
2022-12-17T09:32:38.675Z,6.01
2022-12-17T09:36:02.731Z,6.05
2022-12-17T09:39:26.601Z,6.07
2022-12-17T09:43:01.613Z,6.10
2022-12-17T09:46:33.702Z,6.17
2022-12-17T09:49:59.779Z,6.27
2022-12-17T09:53:23.902Z,6.29
2022-12-17T09:56:47.186Z,6.32
2022-12-17T10:00:10.812Z,6.32
2022-12-17T10:03:35.310Z,6.32
2022-12-17T10:06:59.015Z,6.35
2022-12-17T10:10:25.092Z,6.38
2022-12-17T10:13:51.496Z,6.35
2022-12-17T10:17:19.358Z,6.34
2022-12-17T10:21:11.914Z,6.34
2022-12-17T10:24:43.545Z,6.38
2022-12-17T10:28:06.421Z,6.44
2022-12-17T10:31:30.156Z,6.48
2022-12-17T10:34:52.571Z,6.52
2022-12-17T10:38:15.585Z,6.55
2022-12-17T10:41:50.622Z,6.60
2022-12-17T10:45:13.719Z,6.67
2022-12-17T10:48:38.872Z,6.74
2022-12-17T10:52:08.109Z,6.77
2022-12-17T10:55:34.582Z,6.77
2022-12-17T10:59:00.784Z,6.80
2022-12-17T11:02:30.124Z,6.81
2022-12-17T11:06:03.393Z,6.85
2022-12-17T11:09:27.700Z,6.90
2022-12-17T11:12:51.630Z,6.95
2022-12-17T11:16:32.639Z,7.02
2022-12-17T11:20:20.687Z,7.10
2022-12-17T11:23:51.635Z,7.15
2022-12-17T11:27:15.173Z,7.20
2022-12-17T11:30:48.094Z,7.22
2022-12-17T11:34:39.189Z,7.22
2022-12-17T11:38:10.630Z,7.22
2022-12-17T11:41:19.143Z,7.22
2022-12-17T11:45:01.040Z,7.22
2022-12-17T11:48:21.772Z,7.26
2022-12-17T11:52:03.756Z,7.32
2022-12-17T11:56:09.648Z,7.36
2022-12-17T12:00:13.017Z,7.40
2022-12-17T12:04:07.487Z,7.47
2022-12-17T12:08:02.358Z,7.57
2022-12-17T12:11:32.928Z,7.63
2022-12-17T12:15:12.382Z,7.64
2022-12-17T12:19:08.817Z,7.67
2022-12-17T12:22:53.106Z,7.71
2022-12-17T12:26:43.522Z,7.75
2022-12-17T12:30:35.640Z,7.82
2022-12-17T12:34:27.327Z,7.88
2022-12-17T12:37:51.099Z,7.93
2022-12-17T12:41:32.909Z,7.95
2022-12-17T12:45:35.563Z,7.98
2022-12-17T12:49:14.993Z,7.98
2022-12-17T12:52:41.894Z,8.02
2022-12-17T12:56:15.051Z,8.08
2022-12-17T12:59:55.194Z,8.12
2022-12-17T13:03:18.249Z,8.16
2022-12-17T13:06:23.920Z,8.15
2022-12-17T13:09:36.820Z,8.21
2022-12-17T13:12:51.772Z,8.23
2022-12-17T13:16:05.517Z,8.28
2022-12-17T13:19:20.729Z,8.33
2022-12-17T13:22:32.200Z,8.40
2022-12-17T13:25:38.172Z,8.47
2022-12-17T13:28:44.550Z,8.54
2022-12-17T13:32:00.867Z,8.57
2022-12-17T13:35:33.190Z,8.58
2022-12-17T13:39:00.145Z,8.59
2022-12-17T13:42:08.383Z,8.63
2022-12-17T13:45:15.626Z,8.64
2022-12-17T13:48:25.092Z,8.65
2022-12-17T13:51:36.123Z,8.67
2022-12-17T13:54:42.297Z,8.69
2022-12-17T13:57:48.536Z,8.72
2022-12-17T14:00:54.461Z,8.74
2022-12-17T14:04:10.700Z,8.77
2022-12-17T14:07:19.089Z,8.84
2022-12-17T14:10:31.075Z,8.88
2022-12-17T14:13:36.948Z,8.92
2022-12-17T14:16:47.455Z,8.98
2022-12-17T14:19:51.236Z,9.04
2022-12-17T14:22:58.884Z,9.07
2022-12-17T14:26:05.630Z,9.12
2022-12-17T14:29:11.582Z,9.20
2022-12-17T14:32:21.573Z,9.26
2022-12-17T14:35:45.222Z,9.33
2022-12-17T14:38:51.888Z,9.39
2022-12-17T14:42:16.003Z,9.44
2022-12-17T14:45:25.792Z,9.51
2022-12-17T14:48:34.505Z,9.58
2022-12-17T14:51:46.690Z,9.67
2022-12-17T14:54:52.960Z,9.72
2022-12-17T14:57:58.669Z,9.80
2022-12-17T15:01:19.007Z,9.83
2022-12-17T15:04:27.053Z,9.87
2022-12-17T15:07:40.693Z,9.93
2022-12-17T15:10:46.045Z,10.00
2022-12-17T15:13:56.294Z,10.03
2022-12-17T15:17:03.988Z,10.06
2022-12-17T15:20:09.650Z,10.10
2022-12-17T15:23:16.062Z,10.11
2022-12-17T15:26:24.274Z,10.15
2022-12-17T15:29:31.812Z,10.20
2022-12-17T15:32:37.807Z,10.25
2022-12-17T15:35:44.724Z,10.29
2022-12-17T15:38:50.741Z,10.32
2022-12-17T15:42:16.958Z,10.34
2022-12-17T15:45:26.220Z,10.38
2022-12-17T15:48:36.494Z,10.42
2022-12-17T15:51:43.326Z,10.45
2022-12-17T15:54:50.461Z,10.47
2022-12-17T15:57:57.433Z,10.48
2022-12-17T16:01:02.809Z,10.51
2022-12-17T16:04:16.789Z,10.53
2022-12-17T16:07:19.352Z,10.57
2022-12-17T16:10:26.329Z,10.60
2022-12-17T16:13:32.605Z,10.64
2022-12-17T16:16:39.688Z,10.68
2022-12-17T16:19:45.835Z,10.71
2022-12-17T16:22:52.810Z,10.75
2022-12-17T16:25:58.442Z,10.78
2022-12-17T16:29:03.067Z,10.82
2022-12-17T16:32:09.199Z,10.85
2022-12-17T16:35:15.359Z,10.90
2022-12-17T16:38:23.011Z,10.93
2022-12-17T16:41:28.451Z,10.97
2022-12-17T16:44:35.394Z,10.99
2022-12-17T16:47:41.039Z,11.02
2022-12-17T16:50:48.922Z,11.04
2022-12-17T16:53:55.453Z,11.09
2022-12-17T16:57:01.339Z,11.11
2022-12-17T17:00:06.755Z,11.14
2022-12-17T17:03:13.488Z,11.18
2022-12-17T17:06:22.178Z,11.21
2022-12-17T17:09:29.132Z,11.26
2022-12-17T17:12:34.502Z,11.31
2022-12-17T17:15:39.543Z,11.34
2022-12-17T17:18:47.431Z,11.37
2022-12-17T17:21:55.974Z,11.39
2022-12-17T17:25:01.657Z,11.41
2022-12-17T17:28:09.255Z,11.43
2022-12-17T17:31:15.915Z,11.46
2022-12-17T17:34:27.987Z,11.48
2022-12-17T17:37:36.467Z,11.51
2022-12-17T17:40:45.025Z,11.53
2022-12-17T17:43:51.342Z,11.55
2022-12-17T17:46:58.464Z,11.58
2022-12-17T17:50:08.614Z,11.59
2022-12-17T17:53:15.896Z,11.61
2022-12-17T17:56:25.447Z,11.61
2022-12-17T17:59:34.038Z,11.62
2022-12-17T18:02:41.048Z,11.62
2022-12-17T18:05:53.129Z,11.63
2022-12-17T18:08:58.562Z,11.64
2022-12-17T18:12:03.773Z,11.65
2022-12-17T18:15:15.896Z,11.66
2022-12-17T18:18:17.712Z,11.65
2022-12-17T18:21:26.387Z,11.65
2022-12-17T18:24:37.610Z,11.63
2022-12-17T18:27:44.833Z,11.64
2022-12-17T18:30:52.022Z,11.64
2022-12-17T18:34:00.170Z,11.62
2022-12-17T18:37:05.846Z,11.61
2022-12-17T18:40:11.423Z,11.59
2022-12-17T18:43:31.342Z,11.57
2022-12-17T18:46:37.128Z,11.56
2022-12-17T18:49:45.947Z,11.53
2022-12-17T18:52:51.510Z,11.52
2022-12-17T18:55:58.173Z,11.49
2022-12-17T18:59:06.431Z,11.47
2022-12-17T19:02:13.504Z,11.45
2022-12-17T19:05:19.500Z,11.44
2022-12-17T19:08:25.374Z,11.42
2022-12-17T19:11:37.933Z,11.40
2022-12-17T19:14:41.146Z,11.41
2022-12-17T19:17:50.077Z,11.41
2022-12-17T19:20:56.762Z,11.40
2022-12-17T19:24:03.521Z,11.40
2022-12-17T19:27:10.462Z,11.37
2022-12-17T19:30:19.597Z,11.37
2022-12-17T19:33:26.441Z,11.34
2022-12-17T19:36:34.534Z,11.32
2022-12-17T19:39:43.443Z,11.31
2022-12-17T19:42:48.391Z,11.29
2022-12-17T19:45:55.403Z,11.26
2022-12-17T19:49:03.571Z,11.24
2022-12-17T19:52:11.341Z,11.23
2022-12-17T19:55:16.378Z,11.22
2022-12-17T19:58:22.572Z,11.21
2022-12-17T20:01:33.786Z,11.21
2022-12-17T20:04:39.085Z,11.20
2022-12-17T20:07:45.481Z,11.18
2022-12-17T20:10:52.273Z,11.18
2022-12-17T20:14:01.109Z,11.16
2022-12-17T20:17:14.530Z,11.15
2022-12-17T20:20:21.560Z,11.15
2022-12-17T20:23:27.738Z,11.12
2022-12-17T20:26:35.273Z,11.12
2022-12-17T20:29:40.401Z,11.10
2022-12-17T20:32:46.414Z,11.08
2022-12-17T20:35:54.664Z,11.05
2022-12-17T20:39:00.940Z,11.01
2022-12-17T20:42:08.098Z,10.98
2022-12-17T20:45:14.461Z,10.92
2022-12-17T20:48:20.594Z,10.85
2022-12-17T20:51:30.155Z,10.75
2022-12-17T20:54:36.576Z,10.62
2022-12-17T20:57:41.521Z,10.43
2022-12-17T21:00:49.403Z,10.24
2022-12-17T21:03:56.564Z,10.02
2022-12-17T21:07:03.289Z,9.78
2022-12-17T21:10:11.539Z,9.55
2022-12-17T21:13:37.835Z,9.40
2022-12-17T21:16:45.532Z,9.29
2022-12-17T21:19:51.736Z,9.11
2022-12-17T21:22:57.714Z,8.92
2022-12-17T21:26:22.331Z,8.77
2022-12-17T21:29:28.187Z,8.66
2022-12-17T21:32:33.960Z,8.53
2022-12-17T21:35:42.588Z,8.43
2022-12-17T21:38:47.616Z,8.29
2022-12-17T21:41:56.585Z,8.08
2022-12-17T21:45:03.649Z,7.90
2022-12-17T21:48:14.153Z,7.75
2022-12-17T21:51:19.001Z,7.63
2022-12-17T21:54:26.284Z,7.46
2022-12-17T21:57:33.085Z,7.24
2022-12-17T22:00:38.007Z,7.00
2022-12-17T22:03:43.774Z,6.77
2022-12-17T22:06:58.442Z,6.62
2022-12-17T22:10:03.687Z,6.55
2022-12-17T22:13:08.599Z,6.42
2022-12-17T22:16:15.677Z,6.29
2022-12-17T22:19:24.494Z,6.18
2022-12-17T22:22:31.658Z,6.02
2022-12-17T22:25:38.365Z,5.92
2022-12-17T22:28:44.592Z,5.87
2022-12-17T22:32:09.308Z,5.77
2022-12-17T22:36:50.321Z,5.72
2022-12-17T22:41:27.939Z,5.64
2022-12-17T22:44:32.196Z,5.56
2022-12-17T22:45:08.139Z,5.51
2022-12-17T22:48:08.421Z,5.45
2022-12-17T22:51:28.282Z,5.38
2022-12-17T22:54:23.587Z,5.34
2022-12-17T22:57:36.229Z,5.28
2022-12-17T23:00:42.752Z,5.23
2022-12-17T23:03:48.477Z,5.13
2022-12-17T23:06:53.842Z,5.05
2022-12-17T23:09:59.265Z,4.98
2022-12-17T23:13:07.699Z,4.90
2022-12-17T23:16:13.875Z,4.80
2022-12-17T23:19:19.636Z,4.70
2022-12-17T23:22:25.897Z,4.59
2022-12-17T23:25:31.642Z,4.52
2022-12-17T23:28:36.596Z,4.46
2022-12-17T23:31:47.587Z,4.42
2022-12-17T23:34:53.374Z,4.37
2022-12-17T23:37:59.317Z,4.33
2022-12-17T23:41:05.556Z,4.27
2022-12-17T23:44:14.549Z,4.23
2022-12-17T23:47:21.927Z,4.20
2022-12-17T23:50:27.746Z,4.17
2022-12-17T23:53:33.510Z,4.13
2022-12-17T23:56:40.988Z,4.05
2022-12-17T23:59:46.930Z,3.98
